sensor_id;sensor_type;location;lat;lon;timestamp;P1;durP1;ratioP1;P2;durP2;ratioP2
3817;SDS011;1924;48.078;11.516;2022-10-29T00:01:22;30.00;;;0.80;;
3817;SDS011;1924;48.078;11.516;2022-10-29T00:03:48;30.00;;;0.80;;
3817;SDS011;1924;48.078;11.516;2022-10-29T00:06:15;30.10;;;0.80;;
3817;SDS011;1924;48.078;11.516;2022-10-29T00:08:42;30.00;;;0.80;;
3817;SDS011;1924;48.078;11.516;2022-10-29T00:11:11;29.80;;;0.80;;
3817;SDS011;1924;48.078;11.516;2022-10-29T00:13:40;30.00;;;0.80;;
3817;SDS011;1924;48.078;11.516;2022-10-29T00:16:07;29.77;;;0.80;;
3817;SDS011;1924;48.078;11.516;2022-10-29T00:18:36;30.00;;;0.80;;
3817;SDS011;1924;48.078;11.516;2022-10-29T00:21:03;29.90;;;0.80;;
3817;SDS011;1924;48.078;11.516;2022-10-29T00:23:31;29.87;;;0.80;;
3817;SDS011;1924;48.078;11.516;2022-10-29T00:25:59;29.90;;;0.80;;
3817;SDS011;1924;48.078;11.516;2022-10-29T00:28:28;29.90;;;0.80;;
3817;SDS011;1924;48.078;11.516;2022-10-29T00:31:00;29.90;;;0.80;;
3817;SDS011;1924;48.078;11.516;2022-10-29T00:33:28;29.90;;;0.80;;
3817;SDS011;1924;48.078;11.516;2022-10-29T00:35:55;29.90;;;0.80;;
3817;SDS011;1924;48.078;11.516;2022-10-29T00:38:26;29.77;;;0.80;;
3817;SDS011;1924;48.078;11.516;2022-10-29T00:40:55;29.83;;;0.80;;
3817;SDS011;1924;48.078;11.516;2022-10-29T00:43:23;29.90;;;0.80;;
3817;SDS011;1924;48.078;11.516;2022-10-29T00:45:52;29.90;;;0.80;;
3817;SDS011;1924;48.078;11.516;2022-10-29T00:48:23;29.90;;;0.80;;
3817;SDS011;1924;48.078;11.516;2022-10-29T00:50:52;29.77;;;0.80;;
3817;SDS011;1924;48.078;11.516;2022-10-29T00:53:20;29.90;;;0.80;;
3817;SDS011;1924;48.078;11.516;2022-10-29T00:55:50;29.80;;;0.80;;
3817;SDS011;1924;48.078;11.516;2022-10-29T00:58:17;29.73;;;0.80;;
3817;SDS011;1924;48.078;11.516;2022-10-29T01:00:44;29.87;;;0.80;;
3817;SDS011;1924;48.078;11.516;2022-10-29T01:03:12;29.80;;;0.80;;
3817;SDS011;1924;48.078;11.516;2022-10-29T01:05:39;30.00;;;0.80;;
3817;SDS011;1924;48.078;11.516;2022-10-29T01:08:06;29.70;;;0.80;;
3817;SDS011;1924;48.078;11.516;2022-10-29T01:10:37;29.90;;;0.80;;
3817;SDS011;1924;48.078;11.516;2022-10-29T01:13:26;29.90;;;0.80;;
3817;SDS011;1924;48.078;11.516;2022-10-29T01:16:04;29.87;;;0.80;;
3817;SDS011;1924;48.078;11.516;2022-10-29T01:18:39;29.53;;;0.80;;
3817;SDS011;1924;48.078;11.516;2022-10-29T01:21:18;29.87;;;0.80;;
3817;SDS011;1924;48.078;11.516;2022-10-29T01:24:16;29.80;;;0.80;;
3817;SDS011;1924;48.078;11.516;2022-10-29T01:27:01;29.60;;;0.80;;
3817;SDS011;1924;48.078;11.516;2022-10-29T01:32:42;29.80;;;0.80;;
3817;SDS011;1924;48.078;11.516;2022-10-29T01:35:18;29.90;;;0.80;;
3817;SDS011;1924;48.078;11.516;2022-10-29T01:37:54;29.80;;;0.80;;
3817;SDS011;1924;48.078;11.516;2022-10-29T01:40:31;29.90;;;0.80;;
3817;SDS011;1924;48.078;11.516;2022-10-29T01:43:02;29.80;;;0.80;;
3817;SDS011;1924;48.078;11.516;2022-10-29T01:45:34;29.87;;;0.80;;
3817;SDS011;1924;48.078;11.516;2022-10-29T01:48:07;29.60;;;0.80;;
3817;SDS011;1924;48.078;11.516;2022-10-29T01:50:38;29.80;;;0.80;;
3817;SDS011;1924;48.078;11.516;2022-10-29T01:53:07;29.80;;;0.73;;
3817;SDS011;1924;48.078;11.516;2022-10-29T01:55:34;29.90;;;0.80;;
3817;SDS011;1924;48.078;11.516;2022-10-29T01:58:01;29.80;;;0.80;;
3817;SDS011;1924;48.078;11.516;2022-10-29T02:00:31;29.80;;;0.80;;
3817;SDS011;1924;48.078;11.516;2022-10-29T02:03:11;29.93;;;0.80;;
3817;SDS011;1924;48.078;11.516;2022-10-29T02:05:51;29.60;;;0.80;;
3817;SDS011;1924;48.078;11.516;2022-10-29T02:08:23;29.70;;;0.80;;
3817;SDS011;1924;48.078;11.516;2022-10-29T02:10:58;29.80;;;0.80;;
3817;SDS011;1924;48.078;11.516;2022-10-29T02:13:31;29.90;;;0.80;;
3817;SDS011;1924;48.078;11.516;2022-10-29T02:16:02;29.90;;;0.80;;
3817;SDS011;1924;48.078;11.516;2022-10-29T02:18:39;29.80;;;0.80;;
3817;SDS011;1924;48.078;11.516;2022-10-29T02:21:06;29.90;;;0.73;;
3817;SDS011;1924;48.078;11.516;2022-10-29T02:23:33;29.70;;;0.80;;
3817;SDS011;1924;48.078;11.516;2022-10-29T02:26:00;29.80;;;0.80;;
3817;SDS011;1924;48.078;11.516;2022-10-29T02:28:27;29.80;;;0.80;;
3817;SDS011;1924;48.078;11.516;2022-10-29T04:00:39;29.67;;;0.80;;
3817;SDS011;1924;48.078;11.516;2022-10-29T04:03:06;29.70;;;0.80;;
3817;SDS011;1924;48.078;11.516;2022-10-29T04:05:33;29.57;;;0.80;;
3817;SDS011;1924;48.078;11.516;2022-10-29T04:07:59;29.80;;;0.80;;
3817;SDS011;1924;48.078;11.516;2022-10-29T04:10:27;29.60;;;0.80;;
3817;SDS011;1924;48.078;11.516;2022-10-29T04:12:55;29.60;;;0.80;;
3817;SDS011;1924;48.078;11.516;2022-10-29T04:15:21;29.70;;;0.80;;
3817;SDS011;1924;48.078;11.516;2022-10-29T04:17:50;29.70;;;0.80;;
3817;SDS011;1924;48.078;11.516;2022-10-29T04:20:17;29.60;;;0.80;;
3817;SDS011;1924;48.078;11.516;2022-10-29T04:22:43;29.63;;;0.80;;
3817;SDS011;1924;48.078;11.516;2022-10-29T04:25:10;29.70;;;0.80;;
3817;SDS011;1924;48.078;11.516;2022-10-29T04:27:37;29.70;;;0.80;;
3817;SDS011;1924;48.078;11.516;2022-10-29T04:30:04;29.60;;;0.80;;
3817;SDS011;1924;48.078;11.516;2022-10-29T04:32:31;29.40;;;0.80;;
3817;SDS011;1924;48.078;11.516;2022-10-29T04:34:59;29.70;;;0.80;;
3817;SDS011;1924;48.078;11.516;2022-10-29T04:37:26;29.70;;;0.70;;
3817;SDS011;1924;48.078;11.516;2022-10-29T04:39:54;29.70;;;0.80;;
3817;SDS011;1924;48.078;11.516;2022-10-29T04:42:21;29.70;;;0.80;;
3817;SDS011;1924;48.078;11.516;2022-10-29T04:44:47;29.57;;;0.80;;
3817;SDS011;1924;48.078;11.516;2022-10-29T04:47:14;29.47;;;0.80;;
3817;SDS011;1924;48.078;11.516;2022-10-29T04:49:41;29.70;;;0.80;;
3817;SDS011;1924;48.078;11.516;2022-10-29T04:52:09;29.50;;;0.80;;
3817;SDS011;1924;48.078;11.516;2022-10-29T04:54:36;29.50;;;0.73;;
3817;SDS011;1924;48.078;11.516;2022-10-29T04:57:03;29.70;;;0.80;;
3817;SDS011;1924;48.078;11.516;2022-10-29T04:59:29;29.60;;;0.77;;
3817;SDS011;1924;48.078;11.516;2022-10-29T05:01:56;29.50;;;0.80;;
3817;SDS011;1924;48.078;11.516;2022-10-29T05:04:23;29.70;;;0.80;;
3817;SDS011;1924;48.078;11.516;2022-10-29T05:06:52;29.57;;;0.77;;
3817;SDS011;1924;48.078;11.516;2022-10-29T05:09:20;29.70;;;0.80;;
3817;SDS011;1924;48.078;11.516;2022-10-29T05:11:46;29.50;;;0.80;;
3817;SDS011;1924;48.078;11.516;2022-10-29T05:14:13;29.60;;;0.80;;
3817;SDS011;1924;48.078;11.516;2022-10-29T05:16:40;29.50;;;0.80;;
3817;SDS011;1924;48.078;11.516;2022-10-29T05:19:07;29.60;;;0.80;;
3817;SDS011;1924;48.078;11.516;2022-10-29T05:21:33;29.37;;;0.80;;
3817;SDS011;1924;48.078;11.516;2022-10-29T05:24:00;29.40;;;0.77;;
3817;SDS011;1924;48.078;11.516;2022-10-29T05:26:30;29.30;;;0.80;;
3817;SDS011;1924;48.078;11.516;2022-10-29T05:28:57;29.47;;;0.80;;
3817;SDS011;1924;48.078;11.516;2022-10-29T05:31:23;29.27;;;0.73;;
3817;SDS011;1924;48.078;11.516;2022-10-29T05:33:50;29.40;;;0.80;;
3817;SDS011;1924;48.078;11.516;2022-10-29T05:36:17;29.40;;;0.80;;
3817;SDS011;1924;48.078;11.516;2022-10-29T05:38:44;29.50;;;0.77;;
3817;SDS011;1924;48.078;11.516;2022-10-29T05:41:10;29.50;;;0.80;;
3817;SDS011;1924;48.078;11.516;2022-10-29T05:43:38;29.40;;;0.80;;
3817;SDS011;1924;48.078;11.516;2022-10-29T05:46:05;29.60;;;0.80;;
3817;SDS011;1924;48.078;11.516;2022-10-29T05:48:32;29.50;;;0.80;;
3817;SDS011;1924;48.078;11.516;2022-10-29T05:50:59;29.37;;;0.70;;
3817;SDS011;1924;48.078;11.516;2022-10-29T05:53:25;29.50;;;0.80;;
3817;SDS011;1924;48.078;11.516;2022-10-29T05:55:52;29.47;;;0.80;;
3817;SDS011;1924;48.078;11.516;2022-10-29T05:58:19;29.40;;;0.80;;
3817;SDS011;1924;48.078;11.516;2022-10-29T06:00:47;29.20;;;0.70;;
3817;SDS011;1924;48.078;11.516;2022-10-29T06:03:14;29.40;;;0.70;;
3817;SDS011;1924;48.078;11.516;2022-10-29T06:05:43;29.40;;;0.70;;
3817;SDS011;1924;48.078;11.516;2022-10-29T06:08:11;29.50;;;0.80;;
3817;SDS011;1924;48.078;11.516;2022-10-29T06:10:38;29.40;;;0.80;;
3817;SDS011;1924;48.078;11.516;2022-10-29T06:13:08;29.40;;;0.80;;
3817;SDS011;1924;48.078;11.516;2022-10-29T06:15:36;29.40;;;0.70;;
3817;SDS011;1924;48.078;11.516;2022-10-29T06:18:04;29.30;;;0.73;;
3817;SDS011;1924;48.078;11.516;2022-10-29T06:20:30;29.50;;;0.70;;
3817;SDS011;1924;48.078;11.516;2022-10-29T06:22:57;29.30;;;0.77;;
3817;SDS011;1924;48.078;11.516;2022-10-29T06:25:25;29.43;;;0.80;;
3817;SDS011;1924;48.078;11.516;2022-10-29T06:27:58;29.30;;;0.70;;
3817;SDS011;1924;48.078;11.516;2022-10-29T06:30:26;29.30;;;0.80;;
3817;SDS011;1924;48.078;11.516;2022-10-29T06:32:54;29.30;;;0.80;;
3817;SDS011;1924;48.078;11.516;2022-10-29T06:35:22;29.30;;;0.70;;
3817;SDS011;1924;48.078;11.516;2022-10-29T06:37:49;29.40;;;0.70;;
3817;SDS011;1924;48.078;11.516;2022-10-29T06:40:16;29.30;;;0.73;;
3817;SDS011;1924;48.078;11.516;2022-10-29T06:42:43;29.27;;;0.80;;
3817;SDS011;1924;48.078;11.516;2022-10-29T06:45:10;29.30;;;0.80;;
3817;SDS011;1924;48.078;11.516;2022-10-29T06:47:38;29.30;;;0.80;;
3817;SDS011;1924;48.078;11.516;2022-10-29T06:50:05;29.30;;;0.80;;
3817;SDS011;1924;48.078;11.516;2022-10-29T06:52:34;29.20;;;0.80;;
3817;SDS011;1924;48.078;11.516;2022-10-29T06:55:01;29.30;;;0.70;;
3817;SDS011;1924;48.078;11.516;2022-10-29T06:57:28;29.20;;;0.77;;
3817;SDS011;1924;48.078;11.516;2022-10-29T06:59:55;29.40;;;0.80;;
3817;SDS011;1924;48.078;11.516;2022-10-29T07:02:22;29.27;;;0.77;;
3817;SDS011;1924;48.078;11.516;2022-10-29T07:04:49;29.10;;;0.80;;
3817;SDS011;1924;48.078;11.516;2022-10-29T07:07:16;29.37;;;0.80;;
3817;SDS011;1924;48.078;11.516;2022-10-29T07:09:44;29.17;;;0.73;;
3817;SDS011;1924;48.078;11.516;2022-10-29T07:12:11;29.10;;;0.80;;
3817;SDS011;1924;48.078;11.516;2022-10-29T07:14:38;29.50;;;0.80;;
3817;SDS011;1924;48.078;11.516;2022-10-29T07:17:05;29.10;;;0.80;;
3817;SDS011;1924;48.078;11.516;2022-10-29T07:19:31;29.10;;;0.70;;
3817;SDS011;1924;48.078;11.516;2022-10-29T07:21:58;29.40;;;0.80;;
3817;SDS011;1924;48.078;11.516;2022-10-29T07:24:25;29.40;;;0.73;;
3817;SDS011;1924;48.078;11.516;2022-10-29T07:26:53;29.40;;;0.80;;
3817;SDS011;1924;48.078;11.516;2022-10-29T07:29:20;29.40;;;0.80;;
3817;SDS011;1924;48.078;11.516;2022-10-29T07:31:55;29.47;;;0.70;;
3817;SDS011;1924;48.078;11.516;2022-10-29T07:34:22;29.33;;;0.80;;
3817;SDS011;1924;48.078;11.516;2022-10-29T07:36:49;29.47;;;0.70;;
3817;SDS011;1924;48.078;11.516;2022-10-29T07:39:15;29.50;;;0.70;;
3817;SDS011;1924;48.078;11.516;2022-10-29T07:41:42;29.50;;;0.73;;
3817;SDS011;1924;48.078;11.516;2022-10-29T07:44:11;29.47;;;0.80;;
3817;SDS011;1924;48.078;11.516;2022-10-29T07:46:37;29.50;;;0.73;;
3817;SDS011;1924;48.078;11.516;2022-10-29T07:49:04;29.57;;;0.80;;
3817;SDS011;1924;48.078;11.516;2022-10-29T07:51:31;29.60;;;0.80;;
3817;SDS011;1924;48.078;11.516;2022-10-29T07:53:58;29.50;;;0.80;;
3817;SDS011;1924;48.078;11.516;2022-10-29T07:56:24;29.60;;;0.80;;
3817;SDS011;1924;48.078;11.516;2022-10-29T07:58:51;29.50;;;0.80;;
3817;SDS011;1924;48.078;11.516;2022-10-29T08:01:19;29.57;;;0.80;;
3817;SDS011;1924;48.078;11.516;2022-10-29T08:03:48;29.57;;;0.80;;
3817;SDS011;1924;48.078;11.516;2022-10-29T08:06:15;29.60;;;0.80;;
3817;SDS011;1924;48.078;11.516;2022-10-29T08:08:42;29.60;;;0.80;;
3817;SDS011;1924;48.078;11.516;2022-10-29T08:11:09;29.60;;;0.80;;
3817;SDS011;1924;48.078;11.516;2022-10-29T08:13:36;29.60;;;0.80;;
3817;SDS011;1924;48.078;11.516;2022-10-29T08:16:03;29.60;;;0.80;;
3817;SDS011;1924;48.078;11.516;2022-10-29T08:18:31;29.60;;;0.80;;
3817;SDS011;1924;48.078;11.516;2022-10-29T08:21:01;29.50;;;0.80;;
3817;SDS011;1924;48.078;11.516;2022-10-29T08:23:28;29.50;;;0.80;;
3817;SDS011;1924;48.078;11.516;2022-10-29T08:25:56;29.50;;;0.80;;
3817;SDS011;1924;48.078;11.516;2022-10-29T08:28:23;29.50;;;0.80;;
3817;SDS011;1924;48.078;11.516;2022-10-29T08:30:50;29.40;;;0.80;;
3817;SDS011;1924;48.078;11.516;2022-10-29T08:33:17;29.60;;;0.80;;
3817;SDS011;1924;48.078;11.516;2022-10-29T08:35:46;29.50;;;0.80;;
3817;SDS011;1924;48.078;11.516;2022-10-29T08:38:13;29.50;;;0.80;;
3817;SDS011;1924;48.078;11.516;2022-10-29T08:40:43;29.40;;;0.70;;
3817;SDS011;1924;48.078;11.516;2022-10-29T08:43:26;29.30;;;0.70;;
3817;SDS011;1924;48.078;11.516;2022-10-29T08:46:19;29.60;;;0.80;;
3817;SDS011;1924;48.078;11.516;2022-10-29T08:48:57;29.57;;;0.80;;
3817;SDS011;1924;48.078;11.516;2022-10-29T08:51:29;29.60;;;0.80;;
3817;SDS011;1924;48.078;11.516;2022-10-29T08:53:59;29.67;;;0.80;;
3817;SDS011;1924;48.078;11.516;2022-10-29T08:56:27;29.60;;;0.80;;
3817;SDS011;1924;48.078;11.516;2022-10-29T08:58:56;29.60;;;0.70;;
3817;SDS011;1924;48.078;11.516;2022-10-29T09:01:28;29.60;;;0.70;;
3817;SDS011;1924;48.078;11.516;2022-10-29T09:03:55;29.57;;;0.80;;
3817;SDS011;1924;48.078;11.516;2022-10-29T09:06:25;29.60;;;0.80;;
3817;SDS011;1924;48.078;11.516;2022-10-29T09:09:07;29.53;;;0.77;;
3817;SDS011;1924;48.078;11.516;2022-10-29T09:11:46;29.40;;;0.80;;
3817;SDS011;1924;48.078;11.516;2022-10-29T09:14:27;29.70;;;0.80;;
3817;SDS011;1924;48.078;11.516;2022-10-29T09:17:08;29.60;;;0.70;;
3817;SDS011;1924;48.078;11.516;2022-10-29T09:19:49;29.70;;;0.80;;
3817;SDS011;1924;48.078;11.516;2022-10-29T09:22:31;29.70;;;0.80;;
3817;SDS011;1924;48.078;11.516;2022-10-29T09:25:06;29.70;;;0.70;;
3817;SDS011;1924;48.078;11.516;2022-10-29T09:27:41;29.87;;;0.80;;
3817;SDS011;1924;48.078;11.516;2022-10-29T09:30:19;29.90;;;0.80;;
3817;SDS011;1924;48.078;11.516;2022-10-29T09:32:48;29.90;;;0.80;;
3817;SDS011;1924;48.078;11.516;2022-10-29T09:35:21;29.70;;;0.80;;
3817;SDS011;1924;48.078;11.516;2022-10-29T09:38:05;29.97;;;0.80;;
3817;SDS011;1924;48.078;11.516;2022-10-29T09:40:38;29.90;;;0.80;;
3817;SDS011;1924;48.078;11.516;2022-10-29T09:43:10;30.00;;;0.80;;
3817;SDS011;1924;48.078;11.516;2022-10-29T09:45:45;29.93;;;0.80;;
3817;SDS011;1924;48.078;11.516;2022-10-29T09:48:22;30.10;;;0.77;;
3817;SDS011;1924;48.078;11.516;2022-10-29T09:50:56;30.10;;;0.80;;
3817;SDS011;1924;48.078;11.516;2022-10-29T09:53:31;30.27;;;0.90;;
3817;SDS011;1924;48.078;11.516;2022-10-29T09:55:58;30.00;;;0.80;;
3817;SDS011;1924;48.078;11.516;2022-10-29T09:58:26;30.10;;;0.80;;
3817;SDS011;1924;48.078;11.516;2022-10-29T10:00:54;30.20;;;0.80;;
3817;SDS011;1924;48.078;11.516;2022-10-29T10:03:22;30.10;;;0.80;;
3817;SDS011;1924;48.078;11.516;2022-10-29T10:06:00;30.27;;;0.80;;
3817;SDS011;1924;48.078;11.516;2022-10-29T10:08:28;30.10;;;0.80;;
3817;SDS011;1924;48.078;11.516;2022-10-29T10:10:59;30.10;;;0.77;;
3817;SDS011;1924;48.078;11.516;2022-10-29T10:13:29;30.20;;;0.80;;
3817;SDS011;1924;48.078;11.516;2022-10-29T10:15:57;30.20;;;0.80;;
3817;SDS011;1924;48.078;11.516;2022-10-29T10:18:27;30.50;;;0.80;;
3817;SDS011;1924;48.078;11.516;2022-10-29T10:21:05;30.70;;;0.80;;
3817;SDS011;1924;48.078;11.516;2022-10-29T10:23:41;30.70;;;0.80;;
3817;SDS011;1924;48.078;11.516;2022-10-29T10:26:31;30.97;;;0.77;;
3817;SDS011;1924;48.078;11.516;2022-10-29T10:29:13;31.20;;;0.80;;
3817;SDS011;1924;48.078;11.516;2022-10-29T10:31:48;31.00;;;0.80;;
3817;SDS011;1924;48.078;11.516;2022-10-29T10:34:17;31.10;;;0.80;;
3817;SDS011;1924;48.078;11.516;2022-10-29T10:36:46;31.07;;;0.80;;
3817;SDS011;1924;48.078;11.516;2022-10-29T10:39:19;31.20;;;0.80;;
3817;SDS011;1924;48.078;11.516;2022-10-29T10:41:51;31.20;;;0.80;;
3817;SDS011;1924;48.078;11.516;2022-10-29T10:44:19;31.30;;;0.80;;
3817;SDS011;1924;48.078;11.516;2022-10-29T10:46:50;31.37;;;0.80;;
3817;SDS011;1924;48.078;11.516;2022-10-29T10:49:21;31.30;;;0.80;;
3817;SDS011;1924;48.078;11.516;2022-10-29T10:51:56;31.30;;;0.80;;
3817;SDS011;1924;48.078;11.516;2022-10-29T10:54:35;31.47;;;0.80;;
3817;SDS011;1924;48.078;11.516;2022-10-29T10:57:21;31.37;;;0.80;;
3817;SDS011;1924;48.078;11.516;2022-10-29T10:59:55;31.40;;;0.80;;
3817;SDS011;1924;48.078;11.516;2022-10-29T11:02:28;31.53;;;0.80;;
3817;SDS011;1924;48.078;11.516;2022-10-29T11:05:15;31.47;;;0.80;;
3817;SDS011;1924;48.078;11.516;2022-10-29T11:07:45;31.60;;;0.80;;
3817;SDS011;1924;48.078;11.516;2022-10-29T11:10:17;31.27;;;0.80;;
3817;SDS011;1924;48.078;11.516;2022-10-29T11:12:50;31.47;;;0.80;;
3817;SDS011;1924;48.078;11.516;2022-10-29T11:15:24;31.70;;;0.80;;
3817;SDS011;1924;48.078;11.516;2022-10-29T11:17:59;31.70;;;0.80;;
3817;SDS011;1924;48.078;11.516;2022-10-29T11:20:33;31.60;;;0.80;;
3817;SDS011;1924;48.078;11.516;2022-10-29T11:23:18;31.80;;;0.80;;
3817;SDS011;1924;48.078;11.516;2022-10-29T11:25:55;31.60;;;0.80;;
3817;SDS011;1924;48.078;11.516;2022-10-29T11:28:30;31.70;;;0.80;;
3817;SDS011;1924;48.078;11.516;2022-10-29T11:31:06;31.50;;;0.80;;
3817;SDS011;1924;48.078;11.516;2022-10-29T11:33:40;31.47;;;0.80;;
3817;SDS011;1924;48.078;11.516;2022-10-29T11:36:15;31.27;;;0.80;;
3817;SDS011;1924;48.078;11.516;2022-10-29T11:38:45;31.53;;;0.80;;
3817;SDS011;1924;48.078;11.516;2022-10-29T11:41:20;31.50;;;0.80;;
3817;SDS011;1924;48.078;11.516;2022-10-29T11:43:51;31.67;;;0.80;;
3817;SDS011;1924;48.078;11.516;2022-10-29T11:46:27;31.67;;;0.80;;
3817;SDS011;1924;48.078;11.516;2022-10-29T11:49:06;31.53;;;0.80;;
3817;SDS011;1924;48.078;11.516;2022-10-29T11:51:49;31.77;;;0.80;;
3817;SDS011;1924;48.078;11.516;2022-10-29T11:54:26;31.57;;;0.80;;
3817;SDS011;1924;48.078;11.516;2022-10-29T11:57:04;31.63;;;0.80;;
3817;SDS011;1924;48.078;11.516;2022-10-29T12:00:12;31.63;;;0.80;;
3817;SDS011;1924;48.078;11.516;2022-10-29T12:02:46;31.70;;;0.80;;
3817;SDS011;1924;48.078;11.516;2022-10-29T12:05:40;31.60;;;0.80;;
3817;SDS011;1924;48.078;11.516;2022-10-29T12:08:20;31.60;;;0.80;;
3817;SDS011;1924;48.078;11.516;2022-10-29T12:10:58;31.70;;;0.80;;
3817;SDS011;1924;48.078;11.516;2022-10-29T12:13:37;31.57;;;0.80;;
3817;SDS011;1924;48.078;11.516;2022-10-29T12:16:19;31.83;;;0.80;;
3817;SDS011;1924;48.078;11.516;2022-10-29T12:18:57;31.97;;;0.80;;
3817;SDS011;1924;48.078;11.516;2022-10-29T12:21:32;31.90;;;0.80;;
3817;SDS011;1924;48.078;11.516;2022-10-29T12:24:12;31.90;;;0.80;;
3817;SDS011;1924;48.078;11.516;2022-10-29T12:26:49;31.77;;;0.80;;
3817;SDS011;1924;48.078;11.516;2022-10-29T12:29:26;31.90;;;0.80;;
3817;SDS011;1924;48.078;11.516;2022-10-29T12:32:14;31.83;;;0.80;;
3817;SDS011;1924;48.078;11.516;2022-10-29T12:34:48;31.80;;;0.80;;
3817;SDS011;1924;48.078;11.516;2022-10-29T12:37:23;32.00;;;0.80;;
3817;SDS011;1924;48.078;11.516;2022-10-29T12:39:59;31.93;;;0.80;;
3817;SDS011;1924;48.078;11.516;2022-10-29T12:42:30;32.00;;;0.80;;
3817;SDS011;1924;48.078;11.516;2022-10-29T12:45:02;31.87;;;0.80;;
3817;SDS011;1924;48.078;11.516;2022-10-29T12:47:43;32.00;;;0.80;;
3817;SDS011;1924;48.078;11.516;2022-10-29T12:50:35;32.13;;;0.80;;
3817;SDS011;1924;48.078;11.516;2022-10-29T12:53:11;32.40;;;0.90;;
3817;SDS011;1924;48.078;11.516;2022-10-29T12:55:44;32.03;;;0.80;;
3817;SDS011;1924;48.078;11.516;2022-10-29T13:04:33;32.20;;;0.80;;
3817;SDS011;1924;48.078;11.516;2022-10-29T13:07:29;32.27;;;0.80;;
3817;SDS011;1924;48.078;11.516;2022-10-29T13:13:00;32.37;;;0.90;;
3817;SDS011;1924;48.078;11.516;2022-10-29T13:15:33;32.23;;;0.80;;
3817;SDS011;1924;48.078;11.516;2022-10-29T13:18:07;32.40;;;0.80;;
3817;SDS011;1924;48.078;11.516;2022-10-29T13:20:47;32.37;;;0.80;;
3817;SDS011;1924;48.078;11.516;2022-10-29T13:26:03;32.40;;;0.80;;
3817;SDS011;1924;48.078;11.516;2022-10-29T13:28:46;32.40;;;0.80;;
3817;SDS011;1924;48.078;11.516;2022-10-29T13:34:10;32.27;;;0.80;;
3817;SDS011;1924;48.078;11.516;2022-10-29T13:40:37;32.30;;;0.80;;
3817;SDS011;1924;48.078;11.516;2022-10-29T13:43:25;32.40;;;0.80;;
3817;SDS011;1924;48.078;11.516;2022-10-29T13:49:09;32.20;;;0.80;;
3817;SDS011;1924;48.078;11.516;2022-10-29T13:51:49;32.23;;;0.80;;
3817;SDS011;1924;48.078;11.516;2022-10-29T13:54:23;32.10;;;0.80;;
3817;SDS011;1924;48.078;11.516;2022-10-29T13:56:55;32.30;;;0.80;;
3817;SDS011;1924;48.078;11.516;2022-10-29T13:59:28;32.27;;;0.80;;
3817;SDS011;1924;48.078;11.516;2022-10-29T14:04:57;32.27;;;0.80;;
3817;SDS011;1924;48.078;11.516;2022-10-29T14:07:40;32.20;;;0.83;;
3817;SDS011;1924;48.078;11.516;2022-10-29T14:10:29;32.07;;;0.80;;
3817;SDS011;1924;48.078;11.516;2022-10-29T14:13:05;32.27;;;0.80;;
3817;SDS011;1924;48.078;11.516;2022-10-29T14:15:59;32.10;;;0.80;;
3817;SDS011;1924;48.078;11.516;2022-10-29T14:18:30;32.30;;;0.80;;
3817;SDS011;1924;48.078;11.516;2022-10-29T14:20:58;32.17;;;0.80;;
3817;SDS011;1924;48.078;11.516;2022-10-29T14:23:26;32.27;;;0.80;;
3817;SDS011;1924;48.078;11.516;2022-10-29T14:25:56;32.20;;;0.80;;
3817;SDS011;1924;48.078;11.516;2022-10-29T14:28:27;32.07;;;0.80;;
3817;SDS011;1924;48.078;11.516;2022-10-29T14:30:58;32.30;;;0.80;;
3817;SDS011;1924;48.078;11.516;2022-10-29T14:33:27;32.20;;;0.80;;
3817;SDS011;1924;48.078;11.516;2022-10-29T14:35:57;32.30;;;0.80;;
3817;SDS011;1924;48.078;11.516;2022-10-29T14:38:31;32.30;;;0.80;;
3817;SDS011;1924;48.078;11.516;2022-10-29T14:41:04;32.60;;;0.90;;
3817;SDS011;1924;48.078;11.516;2022-10-29T14:43:31;32.20;;;0.80;;
3817;SDS011;1924;48.078;11.516;2022-10-29T14:46:07;32.13;;;0.80;;
3817;SDS011;1924;48.078;11.516;2022-10-29T14:48:37;32.20;;;0.80;;
3817;SDS011;1924;48.078;11.516;2022-10-29T14:51:17;32.30;;;0.80;;
3817;SDS011;1924;48.078;11.516;2022-10-29T14:53:45;32.27;;;0.80;;
3817;SDS011;1924;48.078;11.516;2022-10-29T14:56:20;32.47;;;0.80;;
3817;SDS011;1924;48.078;11.516;2022-10-29T14:58:55;32.37;;;0.80;;
3817;SDS011;1924;48.078;11.516;2022-10-29T15:01:22;32.30;;;0.80;;
3817;SDS011;1924;48.078;11.516;2022-10-29T15:03:54;32.33;;;0.80;;
3817;SDS011;1924;48.078;11.516;2022-10-29T15:06:24;32.37;;;0.80;;
3817;SDS011;1924;48.078;11.516;2022-10-29T15:08:53;32.50;;;0.80;;
3817;SDS011;1924;48.078;11.516;2022-10-29T15:11:31;32.67;;;0.80;;
3817;SDS011;1924;48.078;11.516;2022-10-29T15:14:00;32.70;;;0.80;;
3817;SDS011;1924;48.078;11.516;2022-10-29T15:16:27;32.80;;;0.80;;
3817;SDS011;1924;48.078;11.516;2022-10-29T15:18:55;32.77;;;0.80;;
3817;SDS011;1924;48.078;11.516;2022-10-29T15:21:23;32.87;;;0.80;;
3817;SDS011;1924;48.078;11.516;2022-10-29T15:23:53;32.70;;;0.80;;
3817;SDS011;1924;48.078;11.516;2022-10-29T15:26:23;32.80;;;0.80;;
3817;SDS011;1924;48.078;11.516;2022-10-29T15:28:52;32.60;;;0.80;;
3817;SDS011;1924;48.078;11.516;2022-10-29T15:31:21;32.53;;;0.80;;
3817;SDS011;1924;48.078;11.516;2022-10-29T15:33:52;32.70;;;0.80;;
3817;SDS011;1924;48.078;11.516;2022-10-29T15:36:20;32.70;;;0.80;;
3817;SDS011;1924;48.078;11.516;2022-10-29T15:39:06;32.60;;;0.80;;
3817;SDS011;1924;48.078;11.516;2022-10-29T15:41:46;32.67;;;0.80;;
3817;SDS011;1924;48.078;11.516;2022-10-29T15:44:35;32.60;;;0.80;;
3817;SDS011;1924;48.078;11.516;2022-10-29T15:47:20;32.70;;;0.80;;
3817;SDS011;1924;48.078;11.516;2022-10-29T15:49:51;32.30;;;0.80;;
3817;SDS011;1924;48.078;11.516;2022-10-29T15:52:18;32.30;;;0.80;;
3817;SDS011;1924;48.078;11.516;2022-10-29T15:54:46;32.27;;;0.80;;
3817;SDS011;1924;48.078;11.516;2022-10-29T15:57:14;32.30;;;0.80;;
3817;SDS011;1924;48.078;11.516;2022-10-29T15:59:43;32.30;;;0.80;;
3817;SDS011;1924;48.078;11.516;2022-10-29T16:02:10;32.17;;;0.80;;
3817;SDS011;1924;48.078;11.516;2022-10-29T16:04:38;32.20;;;0.80;;
3817;SDS011;1924;48.078;11.516;2022-10-29T16:07:07;32.10;;;0.80;;
3817;SDS011;1924;48.078;11.516;2022-10-29T16:09:39;32.27;;;0.80;;
3817;SDS011;1924;48.078;11.516;2022-10-29T16:12:10;32.10;;;0.80;;
3817;SDS011;1924;48.078;11.516;2022-10-29T16:14:37;32.30;;;0.80;;
3817;SDS011;1924;48.078;11.516;2022-10-29T16:17:07;32.30;;;0.80;;
3817;SDS011;1924;48.078;11.516;2022-10-29T16:19:37;32.30;;;0.80;;
3817;SDS011;1924;48.078;11.516;2022-10-29T16:22:04;32.23;;;0.80;;
3817;SDS011;1924;48.078;11.516;2022-10-29T16:24:31;32.03;;;0.80;;
3817;SDS011;1924;48.078;11.516;2022-10-29T16:26:59;32.00;;;0.80;;
3817;SDS011;1924;48.078;11.516;2022-10-29T16:29:25;32.07;;;0.80;;
3817;SDS011;1924;48.078;11.516;2022-10-29T16:31:52;31.97;;;0.80;;
3817;SDS011;1924;48.078;11.516;2022-10-29T16:34:21;32.03;;;0.80;;
3817;SDS011;1924;48.078;11.516;2022-10-29T16:36:47;31.90;;;0.80;;
3817;SDS011;1924;48.078;11.516;2022-10-29T16:39:14;32.00;;;0.80;;
3817;SDS011;1924;48.078;11.516;2022-10-29T16:41:41;31.80;;;0.80;;
3817;SDS011;1924;48.078;11.516;2022-10-29T16:44:08;31.80;;;0.80;;
3817;SDS011;1924;48.078;11.516;2022-10-29T16:46:35;31.77;;;0.80;;
3817;SDS011;1924;48.078;11.516;2022-10-29T16:49:01;31.70;;;0.80;;
3817;SDS011;1924;48.078;11.516;2022-10-29T16:51:30;31.70;;;0.80;;
3817;SDS011;1924;48.078;11.516;2022-10-29T16:53:56;31.67;;;0.80;;
3817;SDS011;1924;48.078;11.516;2022-10-29T16:56:26;31.70;;;0.80;;
3817;SDS011;1924;48.078;11.516;2022-10-29T16:58:55;31.43;;;0.80;;
3817;SDS011;1924;48.078;11.516;2022-10-29T17:01:22;31.57;;;0.80;;
3817;SDS011;1924;48.078;11.516;2022-10-29T17:03:49;31.57;;;0.80;;
3817;SDS011;1924;48.078;11.516;2022-10-29T17:06:17;31.50;;;0.80;;
3817;SDS011;1924;48.078;11.516;2022-10-29T17:08:45;31.57;;;0.80;;
3817;SDS011;1924;48.078;11.516;2022-10-29T17:11:12;31.33;;;0.80;;